Time;durP1;ratioP1;P1;durP2;ratioP2;P2;SDS_P1;SDS_P2;PMS_P1;PMS_P2;Temp;Humidity;BMP_temperature;BMP_pressure;BME280_temperature;BME280_humidity;BME280_pressure;Samples;Min_cycle;Max_cycle;Signal;HPM_P1;HPM_P2
2023/09/10 00:00:42;;;;;;;5.68;3.70;;;;;;;;;;5037493;28;20048;-90
2023/09/10 00:03:07;;;;;;;5.53;3.72;;;;;;;;;;5045974;28;20040;-88
2023/09/10 00:05:33;;;;;;;6.88;4.10;;;;;;;;;;5038361;28;20032;-89
2023/09/10 00:08:00;;;;;;;6.15;4.03;;;;;;;;;;5051361;28;20496;-88
2023/09/10 00:10:26;;;;;;;8.25;4.55;;;;;;;;;;5043256;28;20365;-87
2023/09/10 00:12:51;;;;;;;6.80;4.53;;;;;;;;;;5039007;28;20117;-88
2023/09/10 00:15:16;;;;;;;6.55;4.15;;;;;;;;;;5044247;28;20472;-89
2023/09/10 00:17:42;;;;;;;7.82;4.28;;;;;;;;;;5036992;28;20248;-88
2023/09/10 00:20:09;;;;;;;6.35;3.92;;;;;;;;;;5018670;28;20034;-88
2023/09/10 00:22:35;;;;;;;6.85;4.13;;;;;;;;;;5035584;28;20275;-88
2023/09/10 00:25:00;;;;;;;6.35;4.15;;;;;;;;;;5018521;28;20017;-90
2023/09/10 00:27:25;;;;;;;6.18;3.92;;;;;;;;;;5015397;28;20095;-89
2023/09/10 00:29:51;;;;;;;7.55;4.72;;;;;;;;;;5015657;28;20400;-88
2023/09/10 00:32:16;;;;;;;6.50;4.63;;;;;;;;;;5014779;28;20396;-89
2023/09/10 00:34:41;;;;;;;9.38;4.20;;;;;;;;;;5033446;28;20199;-88
2023/09/10 00:37:07;;;;;;;9.20;4.60;;;;;;;;;;5036214;28;20052;-88
2023/09/10 00:39:32;;;;;;;11.32;4.50;;;;;;;;;;5042145;28;20086;-90
2023/09/10 00:41:58;;;;;;;5.85;4.30;;;;;;;;;;5017071;28;20052;-88
2023/09/10 00:44:23;;;;;;;9.25;4.78;;;;;;;;;;5033513;28;20029;-88
2023/09/10 00:46:52;;;;;;;7.32;4.85;;;;;;;;;;5033024;28;20017;-90
2023/09/10 00:49:17;;;;;;;7.20;4.43;;;;;;;;;;5020540;28;20466;-89
2023/09/10 00:51:44;;;;;;;6.20;4.70;;;;;;;;;;5062159;28;20029;-89
2023/09/10 00:54:10;;;;;;;7.05;4.28;;;;;;;;;;5042163;28;20021;-88
2023/09/10 00:56:36;;;;;;;8.23;4.38;;;;;;;;;;5049100;28;20488;-89
2023/09/10 00:59:01;;;;;;;7.72;4.93;;;;;;;;;;5043656;28;20034;-88
2023/09/10 01:01:27;;;;;;;6.13;4.53;;;;;;;;;;5051739;28;20037;-90
2023/09/10 01:03:53;;;;;;;8.77;5.72;;;;;;;;;;5037523;28;20036;-88
2023/09/10 01:06:20;;;;;;;6.53;5.00;;;;;;;;;;5036976;28;20590;-88
2023/09/10 01:08:47;;;;;;;8.68;5.30;;;;;;;;;;5035919;28;20440;-89
2023/09/10 01:11:40;;;;;;;7.55;5.05;;;;;;;;;;5055559;28;20351;-88
2023/09/10 01:14:22;;;;;;;7.22;4.53;;;;;;;;;;5037583;28;20037;-88
2023/09/10 01:17:05;;;;;;;11.20;4.85;;;;;;;;;;5036237;28;20099;-88
2023/09/10 01:19:45;;;;;;;9.38;4.78;;;;;;;;;;5054253;28;20029;-87
2023/09/10 01:22:25;;;;;;;8.52;4.95;;;;;;;;;;5049800;28;20100;-88
2023/09/10 01:24:51;;;;;;;7.18;4.47;;;;;;;;;;5050779;28;20399;-88
2023/09/10 01:27:18;;;;;;;6.60;4.03;;;;;;;;;;5034860;28;20108;-88
2023/09/10 01:29:44;;;;;;;7.60;4.38;;;;;;;;;;5052463;28;20029;-88
2023/09/10 01:32:24;;;;;;;6.60;4.50;;;;;;;;;;5034581;28;20112;-88
2023/09/10 01:35:06;;;;;;;7.13;4.30;;;;;;;;;;5052908;28;20029;-89
2023/09/10 01:37:41;;;;;;;6.15;4.38;;;;;;;;;;5034995;28;20021;-88
2023/09/10 01:40:09;;;;;;;9.63;4.63;;;;;;;;;;5054006;28;20056;-88
2023/09/10 01:42:34;;;;;;;7.20;4.20;;;;;;;;;;5036154;28;20488;-88
2023/09/10 01:45:00;;;;;;;6.22;4.43;;;;;;;;;;5027377;28;20031;-89
2023/09/10 01:47:26;;;;;;;6.18;4.20;;;;;;;;;;5052944;28;20492;-88
2023/09/10 01:49:52;;;;;;;8.00;4.50;;;;;;;;;;5071152;28;20025;-89
2023/09/10 01:52:17;;;;;;;5.00;4.35;;;;;;;;;;5057252;28;20013;-89
2023/09/10 01:54:42;;;;;;;6.57;4.10;;;;;;;;;;5059942;28;20029;-88
2023/09/10 01:57:08;;;;;;;6.90;4.43;;;;;;;;;;5044528;28;20028;-88
2023/09/10 01:59:33;;;;;;;8.60;4.32;;;;;;;;;;5037892;28;20033;-88
2023/09/10 02:01:58;;;;;;;6.85;4.40;;;;;;;;;;5055445;28;20025;-89
2023/09/10 02:04:24;;;;;;;8.40;4.60;;;;;;;;;;5055300;28;20468;-88
2023/09/10 02:06:49;;;;;;;6.72;4.30;;;;;;;;;;5055663;28;20029;-89
2023/09/10 02:09:14;;;;;;;8.25;4.22;;;;;;;;;;5034415;28;20257;-88
2023/09/10 02:11:42;;;;;;;6.03;4.60;;;;;;;;;;5044249;28;20420;-88
2023/09/10 02:14:07;;;;;;;6.68;4.20;;;;;;;;;;5036229;28;20021;-89
2023/09/10 02:16:33;;;;;;;6.82;4.75;;;;;;;;;;5037753;28;20497;-88
2023/09/10 02:18:58;;;;;;;6.22;4.15;;;;;;;;;;5037956;28;20086;-89
2023/09/10 02:21:24;;;;;;;4.93;4.00;;;;;;;;;;5034918;28;20504;-89
2023/09/10 02:23:49;;;;;;;5.10;3.95;;;;;;;;;;5042785;28;20024;-88
2023/09/10 02:26:15;;;;;;;8.27;4.63;;;;;;;;;;5045373;28;20036;-88
2023/09/10 02:28:41;;;;;;;5.20;3.83;;;;;;;;;;5033562;28;20442;-88
2023/09/10 02:31:07;;;;;;;6.03;3.78;;;;;;;;;;5056404;28;20033;-88
2023/09/10 02:33:33;;;;;;;6.65;3.97;;;;;;;;;;5038105;28;20032;-88
2023/09/10 02:35:59;;;;;;;7.03;4.38;;;;;;;;;;5056599;28;20090;-89
2023/09/10 02:38:24;;;;;;;7.05;4.15;;;;;;;;;;5049777;28;20101;-88
2023/09/10 02:40:51;;;;;;;6.88;4.85;;;;;;;;;;5046601;28;20159;-88
2023/09/10 02:43:16;;;;;;;7.15;4.85;;;;;;;;;;5040573;28;20021;-88
2023/09/10 02:45:41;;;;;;;7.00;4.47;;;;;;;;;;5055611;28;20109;-88
2023/09/10 02:48:07;;;;;;;8.13;5.03;;;;;;;;;;5046731;28;20053;-88
2023/09/10 02:50:32;;;;;;;8.30;4.75;;;;;;;;;;5039158;28;20021;-87
2023/09/10 02:52:57;;;;;;;8.95;5.15;;;;;;;;;;5054249;28;20040;-88
2023/09/10 02:55:23;;;;;;;6.15;4.07;;;;;;;;;;5055976;28;20025;-87
2023/09/10 02:57:48;;;;;;;5.75;4.47;;;;;;;;;;5037971;28;20116;-87
2023/09/10 03:00:14;;;;;;;6.63;4.18;;;;;;;;;;5057227;28;20033;-88
2023/09/10 03:02:39;;;;;;;6.65;4.55;;;;;;;;;;5057416;28;20024;-88
2023/09/10 03:05:05;;;;;;;7.30;4.10;;;;;;;;;;5039923;28;20025;-88
2023/09/10 03:07:32;;;;;;;6.40;4.07;;;;;;;;;;5056662;28;20020;-87
2023/09/10 03:09:57;;;;;;;6.70;4.40;;;;;;;;;;5039094;28;20086;-88
2023/09/10 03:12:25;;;;;;;7.90;4.28;;;;;;;;;;5056765;28;20032;-87
2023/09/10 03:14:50;;;;;;;7.60;4.30;;;;;;;;;;5057056;28;20028;-88
2023/09/10 03:17:17;;;;;;;6.80;4.70;;;;;;;;;;5039661;28;20078;-88
2023/09/10 03:19:43;;;;;;;7.38;4.65;;;;;;;;;;5043883;28;20056;-89
2023/09/10 03:22:09;;;;;;;6.32;4.22;;;;;;;;;;5057511;28;20088;-90
2023/09/10 03:24:35;;;;;;;9.40;4.80;;;;;;;;;;5073355;28;20306;-89
2023/09/10 03:27:01;;;;;;;6.55;4.82;;;;;;;;;;5036153;28;20022;-87
2023/09/10 03:29:26;;;;;;;8.05;5.30;;;;;;;;;;5028320;28;20304;-87
2023/09/10 03:31:52;;;;;;;6.35;4.85;;;;;;;;;;5042848;28;20083;-88
2023/09/10 03:34:18;;;;;;;6.70;4.72;;;;;;;;;;5037124;28;20035;-88
2023/09/10 03:36:44;;;;;;;5.88;4.53;;;;;;;;;;5063858;28;20021;-90
2023/09/10 03:39:09;;;;;;;6.78;4.35;;;;;;;;;;5072185;28;20017;-89
2023/09/10 03:41:34;;;;;;;6.57;4.50;;;;;;;;;;5048497;28;20033;-89
2023/09/10 03:44:00;;;;;;;8.05;4.63;;;;;;;;;;5042458;28;20033;-88
2023/09/10 03:46:26;;;;;;;7.88;4.03;;;;;;;;;;5019349;28;20039;-88
2023/09/10 03:48:51;;;;;;;7.18;4.63;;;;;;;;;;5022175;28;20046;-87
2023/09/10 03:51:16;;;;;;;7.43;4.65;;;;;;;;;;5041525;28;20543;-88
2023/09/10 03:53:42;;;;;;;6.40;4.35;;;;;;;;;;5024943;28;20480;-88
2023/09/10 03:56:07;;;;;;;6.07;4.80;;;;;;;;;;5040430;28;20174;-88
2023/09/10 03:58:33;;;;;;;5.88;4.63;;;;;;;;;;5041688;28;20025;-88
2023/09/10 04:00:58;;;;;;;5.55;4.47;;;;;;;;;;5027933;28;20053;-87
2023/09/10 04:03:25;;;;;;;6.03;4.63;;;;;;;;;;5053913;28;20109;-88
2023/09/10 04:05:52;;;;;;;5.80;4.20;;;;;;;;;;5034294;28;20039;-88
2023/09/10 04:08:17;;;;;;;7.65;4.28;;;;;;;;;;5035026;28;20573;-87
2023/09/10 04:10:43;;;;;;;6.85;4.32;;;;;;;;;;5053542;28;20021;-89
2023/09/10 04:13:08;;;;;;;7.15;4.68;;;;;;;;;;5038021;28;20066;-87
2023/09/10 04:15:33;;;;;;;12.63;5.22;;;;;;;;;;5036310;28;20047;-87
2023/09/10 04:17:59;;;;;;;7.68;5.13;;;;;;;;;;5039782;28;20029;-88
2023/09/10 04:20:24;;;;;;;8.10;5.25;;;;;;;;;;5039261;28;20024;-87
2023/09/10 04:22:49;;;;;;;7.00;4.75;;;;;;;;;;5019200;28;20032;-87
2023/09/10 04:25:15;;;;;;;10.55;5.15;;;;;;;;;;5027628;28;20024;-87
2023/09/10 04:27:40;;;;;;;7.28;4.38;;;;;;;;;;5022026;28;20029;-87
2023/09/10 04:30:07;;;;;;;6.32;4.70;;;;;;;;;;5014359;28;20029;-88
2023/09/10 04:32:32;;;;;;;8.27;5.13;;;;;;;;;;5014153;28;20041;-87
2023/09/10 04:34:57;;;;;;;8.85;5.18;;;;;;;;;;5015124;28;20033;-86
2023/09/10 04:37:23;;;;;;;7.78;4.75;;;;;;;;;;5014451;28;20129;-87
2023/09/10 04:39:48;;;;;;;6.65;4.47;;;;;;;;;;5030483;28;20033;-87
2023/09/10 04:42:13;;;;;;;5.63;4.22;;;;;;;;;;5032218;28;20076;-87
2023/09/10 04:44:39;;;;;;;9.40;4.65;;;;;;;;;;5032497;28;20104;-87
2023/09/10 04:47:04;;;;;;;7.80;5.45;;;;;;;;;;5042111;28;20109;-87
2023/09/10 04:49:30;;;;;;;5.55;4.60;;;;;;;;;;5029683;28;20027;-88
2023/09/10 04:51:55;;;;;;;11.88;5.22;;;;;;;;;;5021671;28;20621;-88
2023/09/10 04:54:21;;;;;;;6.72;4.53;;;;;;;;;;5019818;28;20033;-87
2023/09/10 04:56:47;;;;;;;7.45;4.43;;;;;;;;;;5037872;28;20135;-86
2023/09/10 04:59:13;;;;;;;5.72;4.00;;;;;;;;;;5040971;28;20099;-87
2023/09/10 05:01:38;;;;;;;7.57;5.10;;;;;;;;;;5042088;28;20021;-87
2023/09/10 05:04:04;;;;;;;5.93;4.55;;;;;;;;;;5020465;28;20025;-86
2023/09/10 05:06:30;;;;;;;8.45;5.13;;;;;;;;;;5042971;28;20388;-87
2023/09/10 05:09:02;;;;;;;7.72;4.95;;;;;;;;;;5036356;28;20043;-87
2023/09/10 05:11:28;;;;;;;9.02;4.75;;;;;;;;;;5064330;28;20025;-88
2023/09/10 05:13:53;;;;;;;10.23;5.07;;;;;;;;;;5070707;28;20024;-88
2023/09/10 05:16:19;;;;;;;6.60;4.28;;;;;;;;;;5057857;28;20060;-88
2023/09/10 05:18:44;;;;;;;8.38;5.07;;;;;;;;;;5045105;28;20051;-88
2023/09/10 05:21:10;;;;;;;6.18;4.75;;;;;;;;;;5061505;28;20112;-88
2023/09/10 05:23:35;;;;;;;5.22;4.28;;;;;;;;;;5056729;28;20148;-88
2023/09/10 05:26:03;;;;;;;6.65;4.75;;;;;;;;;;5054620;28;20512;-87
2023/09/10 05:28:29;;;;;;;11.25;5.20;;;;;;;;;;5049355;28;20017;-88
2023/09/10 05:30:55;;;;;;;9.00;5.43;;;;;;;;;;5051899;28;20083;-86
2023/09/10 05:33:20;;;;;;;8.45;5.57;;;;;;;;;;5044989;28;20045;-86
2023/09/10 05:35:56;;;;;;;9.38;5.63;;;;;;;;;;5043101;28;20028;-88
2023/09/10 05:38:21;;;;;;;7.95;5.60;;;;;;;;;;5021669;28;20119;-88
2023/09/10 05:40:47;;;;;;;14.43;5.65;;;;;;;;;;5039611;28;20208;-88
2023/09/10 05:43:12;;;;;;;9.35;5.80;;;;;;;;;;5038829;28;20033;-88
2023/09/10 05:45:37;;;;;;;7.18;5.28;;;;;;;;;;5028433;28;20221;-87
2023/09/10 05:48:03;;;;;;;6.45;4.75;;;;;;;;;;5017713;28;20029;-88
2023/09/10 05:50:29;;;;;;;8.98;5.05;;;;;;;;;;5029799;28;20103;-90
2023/09/10 05:52:58;;;;;;;7.07;5.50;;;;;;;;;;5031896;28;20025;-88
2023/09/10 05:55:26;;;;;;;9.82;5.22;;;;;;;;;;5018239;28;20140;-88
2023/09/10 05:57:52;;;;;;;6.78;5.10;;;;;;;;;;5030272;28;20025;-88
2023/09/10 06:00:19;;;;;;;7.28;4.65;;;;;;;;;;5028440;28;20029;-87
2023/09/10 06:02:44;;;;;;;7.30;5.30;;;;;;;;;;5038207;28;20037;-88
2023/09/10 06:05:09;;;;;;;8.82;5.53;;;;;;;;;;5045838;28;20047;-88
2023/09/10 06:07:35;;;;;;;8.18;5.57;;;;;;;;;;5030982;28;20085;-88
2023/09/10 06:10:00;;;;;;;10.82;5.28;;;;;;;;;;5035744;28;20036;-86
2023/09/10 06:12:25;;;;;;;9.45;5.47;;;;;;;;;;5017353;28;20037;-88
2023/09/10 06:14:51;;;;;;;8.80;5.30;;;;;;;;;;5035954;28;20030;-88
2023/09/10 06:17:17;;;;;;;8.05;5.72;;;;;;;;;;5034874;28;20022;-88
2023/09/10 06:19:42;;;;;;;11.32;6.70;;;;;;;;;;5031227;28;20109;-88
2023/09/10 06:22:08;;;;;;;8.40;5.40;;;;;;;;;;5026989;28;20025;-87
2023/09/10 06:24:33;;;;;;;12.05;5.75;;;;;;;;;;5031492;28;20029;-88
2023/09/10 06:26:58;;;;;;;7.53;5.05;;;;;;;;;;5039682;28;20036;-85
2023/09/10 06:29:24;;;;;;;8.32;5.78;;;;;;;;;;5039013;28;20029;-88
2023/09/10 06:31:49;;;;;;;7.50;5.30;;;;;;;;;;5039417;28;20222;-86
2023/09/10 06:34:15;;;;;;;9.52;5.70;;;;;;;;;;5035705;28;20032;-88
2023/09/10 06:36:40;;;;;;;12.73;6.00;;;;;;;;;;5038953;28;20028;-86
2023/09/10 06:39:06;;;;;;;9.25;5.40;;;;;;;;;;5044576;28;20111;-87
2023/09/10 06:41:31;;;;;;;9.48;5.20;;;;;;;;;;5034895;28;20029;-86
2023/09/10 06:43:56;;;;;;;8.63;5.57;;;;;;;;;;5016660;28;20455;-86
2023/09/10 06:46:22;;;;;;;11.13;5.65;;;;;;;;;;5034988;28;20033;-87
2023/09/10 06:48:47;;;;;;;7.68;5.40;;;;;;;;;;5038324;28;20057;-86
2023/09/10 06:51:12;;;;;;;8.15;5.60;;;;;;;;;;5045322;28;20045;-86
2023/09/10 06:53:38;;;;;;;7.20;5.07;;;;;;;;;;5038185;28;20056;-90
2023/09/10 06:56:03;;;;;;;6.22;5.25;;;;;;;;;;5044247;28;20064;-87
2023/09/10 06:58:29;;;;;;;8.10;5.32;;;;;;;;;;5041038;28;20048;-87
2023/09/10 07:00:54;;;;;;;10.25;5.60;;;;;;;;;;5021540;28;20037;-86
2023/09/10 07:03:19;;;;;;;10.27;5.88;;;;;;;;;;5048099;28;20072;-86
2023/09/10 07:05:45;;;;;;;8.20;5.15;;;;;;;;;;5047906;28;20028;-86
2023/09/10 07:08:11;;;;;;;9.82;5.75;;;;;;;;;;5023373;28;20024;-86
2023/09/10 07:10:37;;;;;;;8.40;5.15;;;;;;;;;;5046353;28;20029;-87
2023/09/10 07:13:05;;;;;;;5.22;4.55;;;;;;;;;;5038389;28;20080;-87
2023/09/10 07:15:31;;;;;;;8.23;5.10;;;;;;;;;;5050308;28;20025;-87
2023/09/10 07:17:56;;;;;;;7.00;5.07;;;;;;;;;;5043796;28;20016;-87
2023/09/10 07:20:22;;;;;;;7.68;4.93;;;;;;;;;;5035814;28;20068;-86
2023/09/10 07:22:47;;;;;;;8.63;4.72;;;;;;;;;;5037578;28;20075;-87
2023/09/10 07:25:12;;;;;;;7.65;4.40;;;;;;;;;;5040469;28;20033;-87
2023/09/10 07:27:38;;;;;;;5.90;4.80;;;;;;;;;;5033388;28;20017;-89
2023/09/10 07:30:04;;;;;;;7.68;5.15;;;;;;;;;;5025383;28;20108;-89
2023/09/10 07:32:30;;;;;;;5.50;4.80;;;;;;;;;;5038927;28;20031;-87
2023/09/10 07:34:55;;;;;;;8.45;5.35;;;;;;;;;;5047057;28;20636;-87
2023/09/10 07:37:20;;;;;;;8.10;4.97;;;;;;;;;;5040159;28;20469;-88
2023/09/10 07:39:45;;;;;;;6.85;4.95;;;;;;;;;;5041404;28;20384;-87
2023/09/10 07:42:11;;;;;;;6.68;4.68;;;;;;;;;;5042147;28;20021;-87
2023/09/10 07:44:36;;;;;;;7.88;4.53;;;;;;;;;;5044218;28;20078;-88
2023/09/10 07:47:02;;;;;;;6.53;4.47;;;;;;;;;;5038788;28;20362;-88
2023/09/10 07:49:28;;;;;;;8.68;5.47;;;;;;;;;;5019806;28;20855;-89
2023/09/10 07:51:53;;;;;;;5.93;4.57;;;;;;;;;;5050537;28;20436;-88
2023/09/10 07:54:19;;;;;;;8.25;5.07;;;;;;;;;;5031476;28;20100;-89
2023/09/10 07:56:45;;;;;;;6.72;4.75;;;;;;;;;;5036033;28;20544;-88
2023/09/10 07:59:11;;;;;;;8.15;4.57;;;;;;;;;;5036537;28;20028;-88
2023/09/10 08:01:38;;;;;;;7.97;4.82;;;;;;;;;;5038106;28;20029;-89
2023/09/10 08:04:03;;;;;;;7.25;5.03;;;;;;;;;;5035366;28;20021;-88
2023/09/10 08:06:29;;;;;;;7.93;4.57;;;;;;;;;;5039332;28;20021;-88
2023/09/10 08:08:54;;;;;;;5.53;4.00;;;;;;;;;;5035901;28;20037;-87
2023/09/10 08:11:19;;;;;;;9.30;4.80;;;;;;;;;;5048660;28;20059;-88
2023/09/10 08:13:45;;;;;;;7.82;4.40;;;;;;;;;;5044663;28;20069;-87
2023/09/10 08:16:13;;;;;;;6.05;4.03;;;;;;;;;;5038134;28;20056;-89
2023/09/10 08:18:39;;;;;;;7.35;4.57;;;;;;;;;;5046972;28;20396;-88
2023/09/10 08:21:05;;;;;;;5.72;4.05;;;;;;;;;;5049949;28;20111;-87
2023/09/10 08:23:30;;;;;;;5.88;4.10;;;;;;;;;;5052502;28;20111;-89
2023/09/10 08:25:55;;;;;;;5.60;4.22;;;;;;;;;;5027193;28;20052;-88
2023/09/10 08:28:21;;;;;;;7.35;4.20;;;;;;;;;;5023906;28;20059;-88
2023/09/10 08:30:54;;;;;;;6.82;4.53;;;;;;;;;;5039513;28;20227;-87
2023/09/10 08:33:21;;;;;;;5.50;4.10;;;;;;;;;;5047276;28;20048;-89
2023/09/10 08:35:49;;;;;;;7.30;4.43;;;;;;;;;;5068155;28;20013;-88
2023/09/10 08:38:15;;;;;;;7.35;4.47;;;;;;;;;;5020495;28;20115;-88
2023/09/10 08:41:08;;;;;;;6.63;4.78;;;;;;;;;;5039030;28;20029;-87
2023/09/10 08:43:56;;;;;;;7.32;4.97;;;;;;;;;;5021679;28;20074;-89
2023/09/10 08:46:29;;;;;;;6.30;4.45;;;;;;;;;;5027583;28;20386;-89
2023/09/10 08:48:59;;;;;;;8.43;4.55;;;;;;;;;;5039680;28;20037;-88
2023/09/10 08:51:25;;;;;;;10.00;4.38;;;;;;;;;;5022955;28;20571;-88
2023/09/10 08:53:53;;;;;;;7.80;4.47;;;;;;;;;;5040811;28;20032;-88
2023/09/10 08:56:19;;;;;;;7.78;4.13;;;;;;;;;;5039603;28;20067;-88
2023/09/10 08:58:45;;;;;;;6.65;4.30;;;;;;;;;;5023521;28;20071;-88
2023/09/10 09:01:12;;;;;;;8.95;4.93;;;;;;;;;;5035420;28;20029;-86
2023/09/10 09:03:37;;;;;;;9.25;5.30;;;;;;;;;;5036792;28;20041;-88
2023/09/10 09:06:04;;;;;;;8.05;5.95;;;;;;;;;;5024646;28;20028;-87
2023/09/10 09:08:32;;;;;;;8.10;4.82;;;;;;;;;;5021792;28;20029;-86
2023/09/10 09:11:05;;;;;;;6.18;4.30;;;;;;;;;;5035945;28;20029;-87
2023/09/10 09:13:34;;;;;;;7.60;4.82;;;;;;;;;;5023443;28;20326;-87
2023/09/10 09:16:01;;;;;;;8.15;4.53;;;;;;;;;;5028984;28;20087;-87
2023/09/10 09:18:28;;;;;;;8.32;4.35;;;;;;;;;;5030676;28;20116;-88
2023/09/10 09:20:57;;;;;;;5.78;3.58;;;;;;;;;;5034348;28;20111;-87
2023/09/10 09:23:30;;;;;;;8.23;4.28;;;;;;;;;;5020820;28;20029;-86
2023/09/10 09:25:57;;;;;;;6.75;3.97;;;;;;;;;;5025759;28;20470;-86
2023/09/10 09:28:23;;;;;;;6.22;3.80;;;;;;;;;;5039820;28;20035;-86
2023/09/10 09:30:49;;;;;;;5.70;3.60;;;;;;;;;;5023922;28;20593;-87
2023/09/10 09:33:15;;;;;;;5.88;3.72;;;;;;;;;;5035408;28;20017;-86
2023/09/10 09:35:40;;;;;;;5.88;3.35;;;;;;;;;;5019567;28;20040;-87
2023/09/10 09:38:13;;;;;;;4.28;3.38;;;;;;;;;;5021439;28;20033;-86
2023/09/10 09:40:39;;;;;;;5.90;3.75;;;;;;;;;;5033050;28;20111;-86
2023/09/10 09:43:09;;;;;;;7.20;4.07;;;;;;;;;;5026978;28;20120;-86
2023/09/10 09:45:36;;;;;;;6.13;3.75;;;;;;;;;;5040237;28;20384;-86
2023/09/10 09:48:03;;;;;;;5.05;3.40;;;;;;;;;;5041309;28;20511;-86
2023/09/10 09:50:29;;;;;;;7.63;4.32;;;;;;;;;;5041655;28;20029;-85
2023/09/10 09:52:55;;;;;;;4.57;3.78;;;;;;;;;;5044850;28;20029;-86
2023/09/10 09:55:20;;;;;;;5.70;3.78;;;;;;;;;;5044679;28;20507;-86
2023/09/10 09:57:46;;;;;;;6.60;3.70;;;;;;;;;;5035386;28;20025;-86
2023/09/10 10:00:13;;;;;;;5.30;4.03;;;;;;;;;;5063278;28;20013;-86
2023/09/10 10:02:38;;;;;;;7.20;3.88;;;;;;;;;;5051651;28;20048;-87
2023/09/10 10:05:04;;;;;;;8.25;4.13;;;;;;;;;;5032635;28;20017;-86
2023/09/10 10:07:30;;;;;;;5.93;3.65;;;;;;;;;;5041634;28;20029;-86
2023/09/10 10:09:58;;;;;;;5.65;3.85;;;;;;;;;;5036336;28;20584;-86
2023/09/10 10:12:25;;;;;;;8.68;3.63;;;;;;;;;;5054191;28;20037;-87
2023/09/10 10:14:50;;;;;;;6.55;3.70;;;;;;;;;;5049794;28;20022;-86
2023/09/10 10:17:16;;;;;;;8.18;3.92;;;;;;;;;;5045425;28;20016;-86
2023/09/10 10:19:42;;;;;;;5.20;3.97;;;;;;;;;;5027255;28;20091;-86
2023/09/10 10:22:08;;;;;;;6.25;4.20;;;;;;;;;;5050773;28;20025;-86
2023/09/10 10:24:34;;;;;;;6.38;3.70;;;;;;;;;;5032438;28;20031;-86
2023/09/10 10:27:00;;;;;;;5.65;3.45;;;;;;;;;;5039209;28;20028;-86
2023/09/10 10:29:27;;;;;;;4.55;3.25;;;;;;;;;;5050844;28;20088;-85
2023/09/10 10:32:04;;;;;;;6.43;4.07;;;;;;;;;;5071980;28;20052;-86
2023/09/10 10:34:37;;;;;;;6.43;4.00;;;;;;;;;;5071521;28;20053;-85
2023/09/10 10:37:27;;;;;;;7.82;3.67;;;;;;;;;;5037713;28;20036;-85
2023/09/10 10:40:11;;;;;;;5.40;3.38;;;;;;;;;;5046037;28;20036;-86
2023/09/10 10:42:52;;;;;;;6.63;4.03;;;;;;;;;;5044096;28;20063;-85
2023/09/10 10:45:19;;;;;;;6.55;4.25;;;;;;;;;;5039932;28;20114;-87
2023/09/10 10:47:47;;;;;;;4.68;3.45;;;;;;;;;;5044840;28;20036;-88
2023/09/10 10:50:15;;;;;;;6.57;3.90;;;;;;;;;;5040724;28;20396;-86
2023/09/10 10:52:58;;;;;;;6.40;2.95;;;;;;;;;;5039722;28;20024;-85
2023/09/10 10:55:24;;;;;;;6.65;3.95;;;;;;;;;;5042860;28;20025;-85
2023/09/10 10:57:50;;;;;;;4.50;3.60;;;;;;;;;;5041378;28;20036;-88
2023/09/10 11:00:16;;;;;;;4.32;3.22;;;;;;;;;;5042544;28;20027;-87
2023/09/10 11:02:41;;;;;;;4.18;3.20;;;;;;;;;;5045847;28;20028;-87
2023/09/10 11:05:07;;;;;;;4.88;3.40;;;;;;;;;;5046059;28;20025;-87
2023/09/10 11:07:34;;;;;;;5.78;3.42;;;;;;;;;;5045067;28;20095;-87
2023/09/10 11:10:20;;;;;;;4.75;3.38;;;;;;;;;;5030734;28;20044;-86
2023/09/10 11:13:07;;;;;;;4.47;3.10;;;;;;;;;;5038715;28;20037;-86
2023/09/10 11:15:32;;;;;;;5.63;3.53;;;;;;;;;;5050351;28;20028;-87
2023/09/10 11:18:35;;;;;;;3.75;3.10;;;;;;;;;;5026460;28;20076;-88
2023/09/10 11:21:05;;;;;;;4.82;3.00;;;;;;;;;;5033992;28;20034;-89
2023/09/10 11:23:31;;;;;;;4.70;3.63;;;;;;;;;;5034691;28;20088;-89
2023/09/10 11:26:12;;;;;;;4.55;3.35;;;;;;;;;;5041455;28;20788;-89
2023/09/10 11:28:52;;;;;;;3.65;3.05;;;;;;;;;;5043342;28;20166;-88
2023/09/10 11:31:33;;;;;;;4.50;3.00;;;;;;;;;;5043575;28;20485;-89
2023/09/10 11:34:18;;;;;;;5.28;3.05;;;;;;;;;;5037384;28;20461;-88
2023/09/10 11:36:43;;;;;;;5.35;3.50;;;;;;;;;;5041866;28;20025;-88
2023/09/10 11:39:09;;;;;;;3.60;2.80;;;;;;;;;;5035177;28;20036;-88
2023/09/10 11:41:34;;;;;;;5.70;3.40;;;;;;;;;;5034337;28;20036;-89
2023/09/10 11:44:01;;;;;;;5.70;3.47;;;;;;;;;;5041074;28;20021;-89
2023/09/10 11:46:26;;;;;;;5.07;3.20;;;;;;;;;;5044862;28;20071;-89
2023/09/10 11:48:52;;;;;;;3.63;3.13;;;;;;;;;;5039600;28;20049;-89
2023/09/10 11:51:17;;;;;;;3.13;2.70;;;;;;;;;;5030202;28;20029;-91
2023/09/10 11:53:43;;;;;;;4.47;2.97;;;;;;;;;;5072951;28;20033;-90
2023/09/10 11:56:08;;;;;;;4.90;3.25;;;;;;;;;;5047534;28;20037;-88
2023/09/10 11:58:34;;;;;;;4.53;2.88;;;;;;;;;;5040071;28;20063;-88
2023/09/10 12:01:03;;;;;;;4.40;3.13;;;;;;;;;;5034326;28;20400;-87
2023/09/10 12:03:29;;;;;;;5.43;3.00;;;;;;;;;;5012375;28;20173;-90
2023/09/10 12:05:56;;;;;;;3.70;2.70;;;;;;;;;;5041420;28;20514;-91
2023/09/10 12:08:22;;;;;;;4.22;2.92;;;;;;;;;;5041963;28;20036;-88
2023/09/10 12:10:47;;;;;;;3.88;2.65;;;;;;;;;;5022350;28;20032;-88
2023/09/10 12:13:13;;;;;;;5.85;2.67;;;;;;;;;;5037196;28;20029;-88
2023/09/10 12:15:39;;;;;;;5.35;3.50;;;;;;;;;;5027605;28;20480;-88
2023/09/10 12:18:05;;;;;;;4.88;3.08;;;;;;;;;;5038870;28;20029;-88
2023/09/10 12:20:33;;;;;;;4.18;3.03;;;;;;;;;;5036086;28;20037;-90
2023/09/10 12:23:00;;;;;;;3.42;2.50;;;;;;;;;;5022886;28;20163;-88
2023/09/10 12:25:27;;;;;;;3.28;2.70;;;;;;;;;;5034482;28;20025;-88
2023/09/10 12:27:53;;;;;;;4.13;2.33;;;;;;;;;;5021485;28;20036;-88
2023/09/10 12:30:19;;;;;;;4.57;2.90;;;;;;;;;;5038935;28;20627;-90
2023/09/10 12:32:45;;;;;;;3.00;2.47;;;;;;;;;;5025533;28;20055;-90
2023/09/10 12:35:11;;;;;;;5.47;3.08;;;;;;;;;;5030976;28;20059;-91
2023/09/10 12:37:46;;;;;;;3.53;2.58;;;;;;;;;;5043777;28;20415;-90
2023/09/10 12:40:12;;;;;;;4.15;2.67;;;;;;;;;;5035993;28;20036;-90
2023/09/10 12:42:37;;;;;;;5.57;2.53;;;;;;;;;;5043302;28;20025;-90
2023/09/10 12:45:03;;;;;;;4.70;2.72;;;;;;;;;;5027909;28;20017;-90
2023/09/10 12:47:28;;;;;;;2.85;2.45;;;;;;;;;;5026186;28;20055;-90
2023/09/10 12:49:54;;;;;;;5.28;2.63;;;;;;;;;;5043431;28;20033;-89
2023/09/10 12:52:19;;;;;;;5.13;2.65;;;;;;;;;;5024800;28;20025;-90
2023/09/10 12:54:45;;;;;;;3.40;2.53;;;;;;;;;;5043893;28;20020;-90
2023/09/10 12:57:11;;;;;;;4.13;3.00;;;;;;;;;;5064870;28;20021;-91
2023/09/10 12:59:37;;;;;;;3.25;2.50;;;;;;;;;;5035169;28;20385;-90
2023/09/10 13:02:03;;;;;;;3.33;2.50;;;;;;;;;;5045395;28;20043;-89
2023/09/10 13:04:29;;;;;;;2.88;2.47;;;;;;;;;;5026471;28;20139;-90
2023/09/10 13:06:54;;;;;;;3.75;2.50;;;;;;;;;;5025039;28;20568;-89
2023/09/10 13:09:19;;;;;;;3.65;2.75;;;;;;;;;;5037708;28;20021;-89
2023/09/10 13:11:45;;;;;;;4.35;2.70;;;;;;;;;;5019993;28;20086;-89
2023/09/10 13:14:10;;;;;;;4.45;2.42;;;;;;;;;;5035501;28;20112;-89
2023/09/10 13:16:36;;;;;;;3.95;2.60;;;;;;;;;;5036697;28;20029;-89
2023/09/10 13:19:01;;;;;;;3.33;2.70;;;;;;;;;;5040854;28;20060;-90
2023/09/10 13:21:27;;;;;;;5.10;2.95;;;;;;;;;;5041196;28;20086;-88
2023/09/10 13:23:52;;;;;;;4.53;2.85;;;;;;;;;;5041590;28;20503;-88
2023/09/10 13:26:17;;;;;;;3.55;2.42;;;;;;;;;;5023601;28;20484;-88
2023/09/10 13:28:43;;;;;;;3.00;2.50;;;;;;;;;;5043554;28;20400;-88
2023/09/10 13:31:08;;;;;;;4.90;3.03;;;;;;;;;;5033799;28;20395;-89
2023/09/10 13:33:33;;;;;;;9.35;3.22;;;;;;;;;;5041995;28;20057;-89
2023/09/10 13:35:59;;;;;;;4.80;3.10;;;;;;;;;;5036736;28;20029;-89
2023/09/10 13:38:24;;;;;;;3.33;2.85;;;;;;;;;;5042891;28;20497;-88
2023/09/10 13:40:53;;;;;;;3.65;2.53;;;;;;;;;;5035952;28;20395;-88
2023/09/10 13:43:18;;;;;;;4.50;2.75;;;;;;;;;;5041917;28;20396;-88
2023/09/10 13:45:44;;;;;;;5.00;3.10;;;;;;;;;;5027635;28;20500;-88
2023/09/10 13:48:09;;;;;;;4.47;2.80;;;;;;;;;;5026640;28;20052;-89
2023/09/10 13:50:35;;;;;;;2.92;2.47;;;;;;;;;;5040216;28;20078;-89
2023/09/10 13:53:00;;;;;;;4.53;2.50;;;;;;;;;;5041467;28;20078;-89
2023/09/10 13:55:25;;;;;;;5.72;2.65;;;;;;;;;;5042085;28;20408;-88
2023/09/10 13:57:51;;;;;;;4.72;2.80;;;;;;;;;;5038230;28;20037;-88
2023/09/10 14:00:16;;;;;;;6.40;2.83;;;;;;;;;;5042143;28;20468;-88
2023/09/10 14:02:41;;;;;;;5.43;2.92;;;;;;;;;;5019052;28;20399;-88
2023/09/10 14:05:07;;;;;;;4.15;2.55;;;;;;;;;;5036388;28;20412;-89
2023/09/10 14:07:33;;;;;;;4.40;2.60;;;;;;;;;;5026183;28;20159;-88
2023/09/10 14:09:59;;;;;;;4.03;2.92;;;;;;;;;;5034324;28;20377;-90
2023/09/10 14:12:24;;;;;;;3.42;3.05;;;;;;;;;;5046719;28;20029;-89
2023/09/10 14:14:50;;;;;;;5.82;2.97;;;;;;;;;;5029633;28;20056;-89
2023/09/10 14:17:16;;;;;;;5.32;2.92;;;;;;;;;;5026356;28;20484;-89
2023/09/10 14:19:41;;;;;;;5.03;2.70;;;;;;;;;;5040904;28;20022;-89
2023/09/10 14:22:07;;;;;;;4.07;2.78;;;;;;;;;;5027308;28;20025;-90
2023/09/10 14:24:32;;;;;;;6.35;3.05;;;;;;;;;;5043527;28;20032;-89
2023/09/10 14:26:57;;;;;;;4.97;2.85;;;;;;;;;;5045352;28;20075;-90
2023/09/10 14:29:24;;;;;;;3.45;2.75;;;;;;;;;;5031011;28;20030;-89
2023/09/10 14:31:50;;;;;;;5.05;2.90;;;;;;;;;;5035575;28;20041;-89
2023/09/10 14:34:15;;;;;;;3.53;2.42;;;;;;;;;;5046318;28;20284;-89
2023/09/10 14:36:41;;;;;;;4.32;3.13;;;;;;;;;;5044677;28;20051;-88
2023/09/10 14:39:06;;;;;;;4.25;2.97;;;;;;;;;;5039695;28;20051;-89
2023/09/10 14:41:31;;;;;;;3.22;2.63;;;;;;;;;;5023577;28;20029;-89